Погода Артёмна неделю

Апшеронский район, Азербайджан

30 мая-05 июня
  • 30мая
    Сегодня
    +20°
    +29°
    Ясно и безоблачно
    ВремяПогодаТемператураВлажностьДавлениеВетер, м/сВероятность осадков
    01:00Практически безоблачно+19°C92 %760 мм1.9 м/с2 %
    04:00Ясно и безоблачно+18°C94 %760 мм1.0 м/с2 %
    07:00Ясно и безоблачно+19°C93 %761 мм1.0 м/с2 %
    10:00Ясно и безоблачно+26°C62 %761 мм3.8 м/с2 %
    13:00Ясно и безоблачно+29°C51 %761 мм6.4 м/с2 %
    16:00Ясно и безоблачно+28°C51 %760 мм5.7 м/с2 %
    19:00Ясно и безоблачно+26°C60 %760 мм3.9 м/с2 %
    22:00Практически безоблачно+22°C73 %760 мм1.9 м/с2 %
  • 31мая
    Пятница
    +19°
    +31°
    Ясно и безоблачно
    ВремяПогодаТемператураВлажностьДавлениеВетер, м/сВероятность осадков
    01:00Ясно и безоблачно+21°C80 %759 мм2.0 м/с2 %
    04:00Ясно и безоблачно+21°C80 %759 мм1.9 м/с2 %
    07:00Ясно и безоблачно+22°C70 %760 мм2.6 м/с2 %
    10:00Ясно и безоблачно+28°C51 %760 мм4.8 м/с2 %
    13:00Ясно и безоблачно+30°C51 %760 мм6.3 м/с2 %
    16:00Ясно и безоблачно+30°C59 %759 мм6.2 м/с2 %
    19:00Практически безоблачно+26°C67 %758 мм4.7 м/с2 %
    22:00Ясно и безоблачно+24°C77 %759 мм2.2 м/с2 %
  • 01июня
    Суббота
    +18°
    +27°
    Ясно и безоблачно
    ВремяПогодаТемператураВлажностьДавлениеВетер, м/сВероятность осадков
    01:00Ясно и безоблачно+21°C85 %758 мм0.2 м/с2 %
    04:00Ясно и безоблачно+20°C87 %758 мм0.5 м/с2 %
    07:00Практически безоблачно+22°C66 %758 мм0.8 м/с2 %
    10:00Практически безоблачно+26°C66 %758 мм3.4 м/с3 %
    13:00Ясно и безоблачно+28°C70 %758 мм6.4 м/с5 %
    16:00Ясно и безоблачно+25°C78 %758 мм11.9 м/с3 %
    19:00Ясно и безоблачно+22°C88 %758 мм12.5 м/с2 %
    22:00Облачно с прояснениями+20°C90 %760 мм10.3 м/с10 %
  • 02июня
    Воскресенье
    +20°
    +26°
    Ясно и безоблачно
    ВремяПогодаТемператураВлажностьДавлениеВетер, м/сВероятность осадков
    01:00Практически безоблачно+20°C93 %760 мм10.0 м/с38 %
    04:00Ясно и безоблачно+19°C92 %760 мм9.5 м/с18 %
    07:00Ясно и безоблачно+20°C88 %761 мм8.2 м/с10 %
    10:00Облачно с прояснениями+22°C82 %762 мм10.4 м/с12 %
    13:00Ясно и безоблачно+24°C80 %762 мм10.4 м/с3 %
    16:00Небольшая облачность+25°C79 %762 мм8.7 м/с2 %
    19:00Ясно и безоблачно+24°C82 %762 мм6.1 м/с2 %
    22:00Ясно и безоблачно+22°C81 %762 мм2.4 м/с2 %
Мы используем cookies
Соглашаюсь